createdAt,value
2022-12-08T00:00:25.848Z,4.97
2022-12-08T00:02:52.541Z,3.63
2022-12-08T00:05:38.109Z,3.83
2022-12-08T00:08:24.726Z,4.23
2022-12-08T00:10:51.309Z,4.70
2022-12-08T00:13:17.869Z,3.40
2022-12-08T00:15:44.448Z,4.70
2022-12-08T00:18:11.019Z,3.20
2022-12-08T00:20:37.564Z,3.83
2022-12-08T00:23:04.400Z,3.00
2022-12-08T00:25:35.918Z,4.20
2022-12-08T00:28:02.549Z,5.17
2022-12-08T00:30:29.064Z,3.67
2022-12-08T00:32:55.600Z,3.43
2022-12-08T00:35:22.150Z,3.37
2022-12-08T00:37:48.663Z,3.10
2022-12-08T00:40:15.234Z,4.57
2022-12-08T00:42:43.116Z,4.80
2022-12-08T00:45:10.675Z,3.60
2022-12-08T00:47:37.201Z,3.47
2022-12-08T00:50:04.360Z,4.80
2022-12-08T00:52:31.078Z,3.10
2022-12-08T00:54:57.592Z,3.40
2022-12-08T00:57:24.219Z,4.07
2022-12-08T00:59:52.097Z,3.53
2022-12-08T01:02:18.659Z,3.90
2022-12-08T01:04:45.306Z,3.77
2022-12-08T01:07:11.838Z,4.30
2022-12-08T01:09:38.434Z,3.70
2022-12-08T01:12:05.856Z,3.30
2022-12-08T01:14:32.940Z,3.83
2022-12-08T01:17:00.845Z,3.87
2022-12-08T01:19:27.502Z,3.80
2022-12-08T01:21:54.022Z,4.30
2022-12-08T01:24:21.461Z,3.90
2022-12-08T01:26:49.023Z,3.23
2022-12-08T01:29:15.621Z,3.70
2022-12-08T01:31:42.285Z,4.20
2022-12-08T01:34:11.300Z,3.60
2022-12-08T01:36:38.496Z,4.03
2022-12-08T01:39:08.012Z,4.30
2022-12-08T01:41:37.416Z,3.65
2022-12-08T01:44:42.540Z,3.15
2022-12-08T01:47:09.815Z,4.03
2022-12-08T01:49:37.766Z,3.47
2022-12-08T01:52:11.191Z,3.73
2022-12-08T01:54:42.015Z,3.57
2022-12-08T01:57:11.725Z,3.80
2022-12-08T02:02:09.088Z,3.58
2022-12-08T02:04:37.593Z,4.67
2022-12-08T02:07:08.115Z,3.60
2022-12-08T02:09:35.585Z,3.60
2022-12-08T02:12:02.235Z,4.27
2022-12-08T02:14:28.803Z,3.83
2022-12-08T02:17:04.302Z,4.07
2022-12-08T02:19:56.885Z,4.47
2022-12-08T02:22:29.879Z,4.73
2022-12-08T02:25:10.334Z,2.83
2022-12-08T02:27:42.583Z,4.60
2022-12-08T02:30:18.803Z,3.13
2022-12-08T02:33:26.815Z,4.70
2022-12-08T02:35:58.959Z,3.80
2022-12-08T02:38:38.454Z,4.20
2022-12-08T02:41:16.506Z,4.00
2022-12-08T02:43:47.242Z,3.70
2022-12-08T02:46:18.956Z,4.43
2022-12-08T02:48:45.789Z,2.83
2022-12-08T02:51:13.883Z,3.93
2022-12-08T02:53:41.285Z,2.80
2022-12-08T02:56:21.159Z,3.50
2022-12-08T02:59:10.316Z,3.20
2022-12-08T03:01:53.951Z,3.35
2022-12-08T03:04:24.332Z,3.13
2022-12-08T03:06:59.222Z,3.90
2022-12-08T03:09:33.918Z,4.03
2022-12-08T03:12:06.487Z,4.53
2022-12-08T03:14:34.655Z,3.03
2022-12-08T03:17:02.913Z,4.40
2022-12-08T03:19:34.750Z,3.63
2022-12-08T03:22:05.011Z,4.43
2022-12-08T03:24:35.083Z,3.47
2022-12-08T03:27:04.771Z,4.10
2022-12-08T03:32:07.265Z,4.30
2022-12-08T03:34:35.765Z,3.20
2022-12-08T03:37:03.995Z,3.43
2022-12-08T03:39:30.516Z,3.73
2022-12-08T03:41:57.036Z,4.70
2022-12-08T03:44:23.556Z,4.43
2022-12-08T03:46:50.083Z,3.80
2022-12-08T03:49:16.613Z,4.00
2022-12-08T03:51:43.386Z,4.27
2022-12-08T03:54:11.315Z,3.77
2022-12-08T03:56:39.172Z,3.70
2022-12-08T03:59:07.419Z,3.80
2022-12-08T04:01:34.430Z,3.57
2022-12-08T04:04:01.093Z,4.47
2022-12-08T04:06:27.671Z,2.83
2022-12-08T04:08:54.401Z,4.33
2022-12-08T04:11:22.277Z,4.17
2022-12-08T04:13:49.182Z,3.43
2022-12-08T04:16:17.205Z,3.87
2022-12-08T04:18:43.838Z,4.00
2022-12-08T04:21:10.416Z,3.33
2022-12-08T04:23:37.038Z,4.30
2022-12-08T04:26:04.110Z,3.97
2022-12-08T04:28:32.057Z,3.60
2022-12-08T04:30:58.739Z,3.90
2022-12-08T04:33:25.445Z,4.10
2022-12-08T04:35:51.963Z,3.50
2022-12-08T04:38:18.573Z,3.70
2022-12-08T04:40:45.413Z,3.83
2022-12-08T04:43:11.981Z,3.57
2022-12-08T04:45:40.830Z,3.10
2022-12-08T04:48:07.588Z,4.55
2022-12-08T04:50:34.101Z,3.63
2022-12-08T04:53:00.687Z,3.53
2022-12-08T04:55:27.238Z,4.80
2022-12-08T04:57:53.749Z,3.73
2022-12-08T05:00:20.350Z,4.17
2022-12-08T05:02:48.270Z,3.60
2022-12-08T05:05:15.019Z,4.13
2022-12-08T05:07:41.760Z,5.40
2022-12-08T05:10:08.709Z,3.73
2022-12-08T05:12:35.247Z,4.97
2022-12-08T05:15:01.827Z,4.40
2022-12-08T05:17:28.361Z,4.13
2022-12-08T05:19:56.280Z,4.87
2022-12-08T05:22:22.854Z,6.27
2022-12-08T05:24:49.387Z,5.23
2022-12-08T05:27:15.926Z,3.87
2022-12-08T05:29:42.481Z,4.77
2022-12-08T05:32:09.217Z,4.67
2022-12-08T05:34:35.873Z,5.57
2022-12-08T05:37:03.768Z,4.23
2022-12-08T05:39:30.976Z,4.70
2022-12-08T05:41:57.488Z,5.47
2022-12-08T05:44:24.073Z,4.67
2022-12-08T05:46:50.617Z,5.00
2022-12-08T05:49:17.227Z,3.90
2022-12-08T05:51:44.129Z,3.53
2022-12-08T05:54:12.032Z,4.33
2022-12-08T05:56:38.547Z,5.10
2022-12-08T05:59:05.601Z,3.87
2022-12-08T06:01:32.385Z,3.90
2022-12-08T06:04:00.969Z,5.83
2022-12-08T06:06:28.081Z,5.40
2022-12-08T06:08:54.967Z,4.20
2022-12-08T06:11:24.811Z,4.43
2022-12-08T06:13:51.999Z,4.37
2022-12-08T06:16:19.224Z,4.13
2022-12-08T06:18:45.879Z,5.70
2022-12-08T06:21:14.493Z,4.47
2022-12-08T06:23:41.798Z,4.30
2022-12-08T06:26:10.809Z,4.10
2022-12-08T06:28:39.566Z,4.90
2022-12-08T06:31:08.570Z,4.63
2022-12-08T06:33:35.274Z,4.72
2022-12-08T06:36:01.804Z,4.43
2022-12-08T06:38:28.330Z,5.60
2022-12-08T06:40:55.405Z,5.47
2022-12-08T06:43:22.054Z,5.53
2022-12-08T06:45:50.172Z,4.03
2022-12-08T06:48:17.664Z,4.60
2022-12-08T06:50:44.457Z,4.47
2022-12-08T06:53:11.464Z,5.17
2022-12-08T06:58:24.506Z,4.10
2022-12-08T07:00:52.546Z,4.73
2022-12-08T07:03:19.208Z,4.43
2022-12-08T07:05:45.809Z,5.47
2022-12-08T07:08:12.664Z,5.73
2022-12-08T07:10:39.284Z,5.03
2022-12-08T07:13:05.819Z,5.87
2022-12-08T07:15:32.349Z,4.97
2022-12-08T07:18:00.704Z,4.97
2022-12-08T07:20:27.440Z,4.90
2022-12-08T07:22:54.062Z,4.53
2022-12-08T07:25:20.764Z,3.90
2022-12-08T07:27:47.767Z,6.20
2022-12-08T07:30:14.976Z,5.47
2022-12-08T07:32:41.572Z,5.03
2022-12-08T07:35:10.357Z,5.63
2022-12-08T07:37:37.946Z,4.55
2022-12-08T07:40:06.055Z,5.43
2022-12-08T07:42:33.152Z,7.77
2022-12-08T07:45:00.573Z,5.17
2022-12-08T07:47:27.117Z,5.23
2022-12-08T07:49:53.668Z,5.87
2022-12-08T07:52:21.541Z,4.93
2022-12-08T07:54:48.233Z,6.27
2022-12-08T07:57:14.898Z,6.47
2022-12-08T07:59:41.425Z,5.50
2022-12-08T08:02:24.423Z,5.97
2022-12-08T08:04:52.801Z,7.57
2022-12-08T08:07:20.763Z,5.60
2022-12-08T08:09:47.288Z,24.30
2022-12-08T08:12:30.907Z,10.43
2022-12-08T08:14:58.878Z,19.70
2022-12-08T08:17:25.568Z,20.87
2022-12-08T08:19:52.249Z,26.27
2022-12-08T08:22:18.839Z,29.40
2022-12-08T08:24:46.685Z,23.07
2022-12-08T08:27:13.929Z,29.07
2022-12-08T08:29:40.500Z,20.90
2022-12-08T08:32:07.061Z,9.73
2022-12-08T08:34:33.613Z,18.97
2022-12-08T08:37:00.223Z,14.70
2022-12-08T08:39:26.949Z,14.83
2022-12-08T08:41:54.809Z,6.83
2022-12-08T08:44:21.470Z,8.63
2022-12-08T08:46:48.122Z,22.13
2022-12-08T08:49:14.706Z,17.20
2022-12-08T08:51:42.143Z,8.67
2022-12-08T08:54:08.656Z,8.73
2022-12-08T08:56:35.236Z,9.77
2022-12-08T08:59:03.764Z,9.43
2022-12-08T09:01:30.837Z,7.57
2022-12-08T09:03:58.174Z,7.83
2022-12-08T09:06:25.586Z,6.80
2022-12-08T09:08:52.267Z,7.70
2022-12-08T09:11:18.957Z,5.03
2022-12-08T09:13:49.150Z,5.77
2022-12-08T09:16:17.944Z,6.57
2022-12-08T09:18:44.633Z,5.50
2022-12-08T09:21:15.265Z,6.33
2022-12-08T09:23:42.681Z,8.00
2022-12-08T09:26:09.554Z,6.77
2022-12-08T09:28:36.279Z,7.03
2022-12-08T09:31:03.101Z,7.00
2022-12-08T09:33:31.209Z,7.13
2022-12-08T09:36:02.736Z,5.77
2022-12-08T09:38:29.280Z,5.97
2022-12-08T09:40:56.257Z,7.47
2022-12-08T09:43:45.319Z,5.57
2022-12-08T09:46:15.003Z,7.38
2022-12-08T09:51:14.727Z,6.80
2022-12-08T09:53:46.717Z,5.15
2022-12-08T09:56:16.105Z,10.60
2022-12-08T09:58:51.838Z,6.10
2022-12-08T10:01:19.959Z,4.87
2022-12-08T10:03:48.770Z,6.60
2022-12-08T10:06:21.510Z,5.10
2022-12-08T10:08:58.434Z,4.53
2022-12-08T10:11:32.013Z,4.97
2022-12-08T10:14:10.160Z,4.50
2022-12-08T10:16:40.272Z,4.90
2022-12-08T10:19:15.934Z,5.27
2022-12-08T10:21:42.658Z,5.40
2022-12-08T10:24:16.341Z,5.83
2022-12-08T10:26:43.253Z,5.77
2022-12-08T10:29:12.645Z,2.90
2022-12-08T10:31:39.406Z,3.08
2022-12-08T10:34:15.381Z,3.73
2022-12-08T10:36:49.855Z,3.30
2022-12-08T10:39:36.979Z,3.70
2022-12-08T10:42:11.851Z,5.03
2022-12-08T10:44:53.421Z,4.83
2022-12-08T10:47:22.197Z,7.80
2022-12-08T10:50:07.513Z,7.47
2022-12-08T10:52:38.930Z,6.20
2022-12-08T10:55:14.717Z,6.57
2022-12-08T10:57:41.302Z,5.40
2022-12-08T11:00:14.323Z,4.80
2022-12-08T11:02:54.007Z,4.63
2022-12-08T11:05:25.655Z,5.22
2022-12-08T11:07:54.837Z,6.13
2022-12-08T11:10:30.738Z,4.32
2022-12-08T11:13:00.184Z,4.43
2022-12-08T11:15:34.183Z,5.55
2022-12-08T11:18:07.790Z,5.13
2022-12-08T11:20:41.598Z,5.37
2022-12-08T11:23:21.051Z,6.70
2022-12-08T11:25:49.337Z,4.45
2022-12-08T11:28:20.677Z,6.63
2022-12-08T11:30:54.334Z,3.63
2022-12-08T11:33:23.480Z,4.20
2022-12-08T11:35:56.612Z,5.05
2022-12-08T11:38:25.220Z,4.43
2022-12-08T11:40:55.243Z,4.37
2022-12-08T11:43:31.366Z,3.77
2022-12-08T11:45:59.972Z,3.97
2022-12-08T11:48:32.118Z,4.60
2022-12-08T11:51:05.421Z,1.53
2022-12-08T11:53:37.711Z,3.83
2022-12-08T11:56:09.586Z,2.33
2022-12-08T11:58:41.050Z,2.80
2022-12-08T12:01:16.758Z,2.20
2022-12-08T12:03:48.088Z,3.13
2022-12-08T12:09:35.053Z,2.63
2022-12-08T12:12:16.530Z,2.23
2022-12-08T12:15:11.835Z,4.63
2022-12-08T12:17:43.847Z,3.73
2022-12-08T12:20:17.107Z,2.77
2022-12-08T12:22:48.528Z,3.47
2022-12-08T12:25:23.880Z,3.60
2022-12-08T12:27:57.108Z,3.93
2022-12-08T12:30:26.247Z,3.20
2022-12-08T12:32:56.751Z,3.67
2022-12-08T12:35:33.135Z,3.93
2022-12-08T12:38:04.537Z,3.27
2022-12-08T12:40:39.608Z,3.63
2022-12-08T12:43:31.061Z,4.63
2022-12-08T12:46:41.785Z,4.43
2022-12-08T12:49:51.450Z,3.00
2022-12-08T12:52:46.732Z,4.23
2022-12-08T12:55:29.417Z,3.57
2022-12-08T12:57:57.475Z,4.10
2022-12-08T13:00:25.595Z,4.13
2022-12-08T13:02:54.261Z,2.40
2022-12-08T13:05:24.233Z,3.00
2022-12-08T13:07:54.476Z,2.30
2022-12-08T13:10:25.043Z,4.40
2022-12-08T13:13:07.124Z,4.23
2022-12-08T13:15:36.495Z,4.40
2022-12-08T13:18:04.068Z,4.05
2022-12-08T13:20:30.978Z,3.80
2022-12-08T13:23:13.666Z,3.47
2022-12-08T13:25:51.496Z,3.67
2022-12-08T13:28:29.421Z,3.50
2022-12-08T13:30:58.215Z,3.27
2022-12-08T13:33:29.288Z,3.47
2022-12-08T13:36:13.263Z,3.67
2022-12-08T13:38:42.968Z,2.80
2022-12-08T13:44:02.543Z,5.50
2022-12-08T13:58:03.022Z,4.43
2022-12-08T14:00:29.682Z,3.83
2022-12-08T14:02:58.492Z,4.30
2022-12-08T14:05:55.153Z,3.45
2022-12-08T14:08:36.267Z,3.40
2022-12-08T14:11:07.947Z,2.80
2022-12-08T14:13:35.870Z,4.20
2022-12-08T14:16:02.544Z,3.77
2022-12-08T14:18:31.535Z,2.80
2022-12-08T14:23:50.435Z,3.90
2022-12-08T14:26:17.891Z,3.23
2022-12-08T14:28:45.883Z,4.17
2022-12-08T14:31:14.385Z,3.13
2022-12-08T14:33:41.360Z,4.23
2022-12-08T14:36:10.630Z,2.87
2022-12-08T14:38:37.339Z,3.53
2022-12-08T14:41:05.773Z,3.37
2022-12-08T14:43:33.055Z,3.70
2022-12-08T14:46:03.798Z,3.30
2022-12-08T14:48:42.690Z,2.60
2022-12-08T14:51:16.166Z,2.97
2022-12-08T14:53:46.459Z,2.40
2022-12-08T14:56:20.616Z,2.40
2022-12-08T14:58:48.932Z,2.50
2022-12-08T15:01:23.295Z,3.53
2022-12-08T15:03:51.521Z,2.43
2022-12-08T15:06:21.946Z,2.80
2022-12-08T15:08:54.791Z,3.43
2022-12-08T15:11:30.889Z,4.60
2022-12-08T15:13:57.798Z,2.00
2022-12-08T15:16:32.010Z,3.03
2022-12-08T15:19:05.736Z,2.60
2022-12-08T15:21:37.868Z,2.93
2022-12-08T15:24:04.853Z,3.50
2022-12-08T15:26:39.047Z,3.50
2022-12-08T15:29:11.073Z,3.70
2022-12-08T15:31:39.109Z,2.77
2022-12-08T15:34:05.672Z,3.40
2022-12-08T15:36:32.260Z,3.20
2022-12-08T15:38:59.017Z,2.93
2022-12-08T15:41:25.552Z,3.17
2022-12-08T15:43:52.112Z,3.83
2022-12-08T15:46:18.719Z,3.93
2022-12-08T15:48:46.735Z,2.70
2022-12-08T15:51:13.273Z,4.03
2022-12-08T15:53:39.849Z,3.63
2022-12-08T15:58:56.623Z,4.87
2022-12-08T16:01:24.589Z,2.38
2022-12-08T16:09:30.977Z,3.63
2022-12-08T16:12:16.186Z,3.23
2022-12-08T16:17:31.512Z,4.07
2022-12-08T16:19:59.624Z,3.33
2022-12-08T16:25:20.666Z,3.33
2022-12-08T16:30:36.269Z,3.20
2022-12-08T16:33:02.858Z,6.37
2022-12-08T16:35:31.251Z,4.13
2022-12-08T16:37:57.835Z,4.10
2022-12-08T16:40:24.759Z,3.17
2022-12-08T16:42:51.301Z,4.23
2022-12-08T16:45:19.520Z,5.10
2022-12-08T16:47:47.739Z,4.43
2022-12-08T16:50:16.550Z,5.60
2022-12-08T16:52:44.585Z,3.97
2022-12-08T16:55:13.095Z,4.60
2022-12-08T16:57:40.339Z,3.63
2022-12-08T17:00:09.520Z,4.77
2022-12-08T17:02:36.110Z,5.63
2022-12-08T17:05:03.574Z,6.40
2022-12-08T17:07:30.396Z,4.23
2022-12-08T17:09:58.887Z,4.13
2022-12-08T17:12:25.412Z,4.70
2022-12-08T17:14:51.922Z,5.17
2022-12-08T17:17:18.465Z,5.30
2022-12-08T17:19:45.466Z,7.37
2022-12-08T17:22:12.000Z,7.20
2022-12-08T17:24:38.615Z,5.50
2022-12-08T17:27:06.805Z,4.87
2022-12-08T17:29:34.506Z,5.63
2022-12-08T17:32:01.250Z,4.80
2022-12-08T17:34:28.117Z,6.00
2022-12-08T17:36:55.057Z,4.53
2022-12-08T17:39:21.662Z,6.03
2022-12-08T17:41:48.244Z,5.50
2022-12-08T17:44:18.424Z,5.70
2022-12-08T17:46:52.118Z,6.27
2022-12-08T17:49:21.622Z,5.53
2022-12-08T17:51:49.059Z,5.80
2022-12-08T17:54:16.296Z,8.00
2022-12-08T17:56:43.233Z,6.23
2022-12-08T17:59:10.477Z,6.57
2022-12-08T18:01:38.536Z,6.33
2022-12-08T18:04:06.497Z,5.63
2022-12-08T18:06:33.514Z,6.10
2022-12-08T18:09:01.079Z,5.17
2022-12-08T18:11:28.822Z,7.60
2022-12-08T18:13:56.412Z,5.87
2022-12-08T18:16:25.381Z,6.40
2022-12-08T18:18:53.745Z,4.35
2022-12-08T18:21:23.517Z,4.50
2022-12-08T18:23:51.621Z,7.40
2022-12-08T18:26:18.422Z,5.83
2022-12-08T18:28:45.040Z,5.43
2022-12-08T18:31:13.885Z,6.37
2022-12-08T18:33:41.805Z,5.45
2022-12-08T18:36:12.625Z,6.20
2022-12-08T18:38:39.382Z,5.47
2022-12-08T18:41:07.935Z,4.83
2022-12-08T18:43:34.649Z,6.50
2022-12-08T18:46:02.278Z,5.27
2022-12-08T18:48:28.878Z,6.03
2022-12-08T18:50:55.508Z,6.60
2022-12-08T18:53:23.435Z,4.87
2022-12-08T18:55:50.987Z,5.93
2022-12-08T18:58:17.743Z,5.57
2022-12-08T19:00:44.605Z,5.33
2022-12-08T19:03:11.500Z,5.23
2022-12-08T19:05:38.529Z,4.30
2022-12-08T19:08:05.171Z,4.67
2022-12-08T19:10:34.917Z,4.97
2022-12-08T19:15:28.061Z,6.07
2022-12-08T19:17:54.676Z,5.70
2022-12-08T19:20:21.257Z,5.33
2022-12-08T19:22:47.811Z,5.87
2022-12-08T19:25:14.392Z,5.33
2022-12-08T19:27:42.327Z,8.53
2022-12-08T19:30:10.514Z,6.50
2022-12-08T19:32:37.052Z,6.10
2022-12-08T19:35:07.226Z,5.23
2022-12-08T19:37:33.927Z,6.00
2022-12-08T19:40:18.921Z,4.60
2022-12-08T19:43:05.786Z,5.10
2022-12-08T19:45:35.224Z,5.93
2022-12-08T19:48:01.932Z,5.68
2022-12-08T19:50:37.871Z,5.67
2022-12-08T19:53:07.124Z,6.40
2022-12-08T19:55:34.252Z,4.82
2022-12-08T19:58:02.432Z,6.83
2022-12-08T20:00:30.271Z,7.83
2022-12-08T20:02:57.596Z,6.83
2022-12-08T20:05:24.456Z,5.77
2022-12-08T20:07:52.208Z,4.33
2022-12-08T20:10:22.054Z,6.33
2022-12-08T20:12:48.854Z,5.77
2022-12-08T20:15:16.796Z,6.13
2022-12-08T20:17:43.565Z,8.70
2022-12-08T20:20:12.155Z,6.53
2022-12-08T20:22:38.839Z,7.93
2022-12-08T20:25:06.251Z,4.43
2022-12-08T20:27:33.281Z,6.40
2022-12-08T20:29:59.865Z,6.33
2022-12-08T20:32:27.804Z,5.33
2022-12-08T20:34:54.354Z,5.60
2022-12-08T20:37:20.897Z,6.33
2022-12-08T20:39:47.470Z,16.43
2022-12-08T20:42:14.145Z,6.87
2022-12-08T20:44:44.153Z,6.10
2022-12-08T20:47:12.028Z,11.77
2022-12-08T20:49:40.307Z,6.93
2022-12-08T20:52:07.774Z,7.50
2022-12-08T20:54:35.438Z,6.67
2022-12-08T20:57:02.110Z,7.37
2022-12-08T20:59:29.192Z,7.57
2022-12-08T21:01:55.964Z,7.17
2022-12-08T21:04:23.344Z,7.73
2022-12-08T21:06:51.592Z,6.70
2022-12-08T21:09:18.561Z,7.33
2022-12-08T21:11:45.418Z,10.23
2022-12-08T21:14:11.983Z,7.27
2022-12-08T21:16:38.802Z,5.87
2022-12-08T21:19:06.261Z,7.03
2022-12-08T21:21:33.033Z,4.97
2022-12-08T21:24:01.148Z,6.80
2022-12-08T21:26:27.860Z,7.53
2022-12-08T21:28:54.980Z,5.80
2022-12-08T21:31:21.918Z,6.87
2022-12-08T21:33:49.202Z,6.93
2022-12-08T21:36:18.392Z,6.23
2022-12-08T21:38:45.618Z,6.80
2022-12-08T21:41:15.526Z,5.90
2022-12-08T21:43:43.231Z,5.30
2022-12-08T21:46:15.416Z,6.13
2022-12-08T21:48:42.147Z,6.53
2022-12-08T21:51:08.981Z,4.70
2022-12-08T21:53:35.775Z,6.13
2022-12-08T21:56:02.602Z,6.97
2022-12-08T21:58:32.658Z,5.63
2022-12-08T22:01:05.184Z,5.83
2022-12-08T22:03:31.899Z,8.00
2022-12-08T22:06:04.174Z,5.77
2022-12-08T22:08:30.942Z,6.43
2022-12-08T22:10:57.652Z,6.20
2022-12-08T22:13:24.273Z,5.90
2022-12-08T22:15:57.338Z,5.47
2022-12-08T22:18:24.514Z,8.20
2022-12-08T22:20:51.287Z,7.03
2022-12-08T22:23:18.329Z,6.50
2022-12-08T22:25:45.186Z,6.30
2022-12-08T22:28:12.584Z,4.80
2022-12-08T22:30:39.741Z,6.10
2022-12-08T22:33:07.794Z,5.37
2022-12-08T22:35:34.456Z,6.20
2022-12-08T22:38:01.124Z,6.77
2022-12-08T22:40:27.781Z,6.17
2022-12-08T22:42:54.462Z,5.37
2022-12-08T22:45:21.423Z,6.03
2022-12-08T22:47:48.212Z,5.63
2022-12-08T22:50:16.377Z,7.37
2022-12-08T22:52:43.090Z,6.83
2022-12-08T22:55:10.150Z,7.00
2022-12-08T22:57:36.895Z,6.50
2022-12-08T23:00:05.970Z,6.87
2022-12-08T23:02:33.040Z,6.18
2022-12-08T23:04:59.836Z,6.27
2022-12-08T23:07:27.806Z,7.37
2022-12-08T23:09:54.545Z,5.67
2022-12-08T23:12:21.401Z,8.07
2022-12-08T23:14:48.000Z,6.13
2022-12-08T23:17:14.609Z,5.90
2022-12-08T23:19:41.391Z,5.80
2022-12-08T23:22:07.988Z,6.03
2022-12-08T23:24:35.926Z,5.70
2022-12-08T23:27:02.793Z,6.63
2022-12-08T23:29:29.381Z,6.67
2022-12-08T23:31:56.038Z,6.87
2022-12-08T23:34:22.704Z,6.67
2022-12-08T23:36:49.497Z,6.73
2022-12-08T23:39:16.395Z,6.10
2022-12-08T23:41:44.563Z,6.30
2022-12-08T23:44:12.023Z,6.60
2022-12-08T23:46:38.672Z,7.00
2022-12-08T23:49:05.374Z,6.40
2022-12-08T23:51:32.022Z,5.73
2022-12-08T23:53:58.558Z,5.53
2022-12-08T23:56:30.000Z,6.70
2022-12-08T23:59:00.352Z,7.70
